Time;durP1;ratioP1;P1;durP2;ratioP2;P2;SDS_P1;SDS_P2;PMS_P1;PMS_P2;Temp;Humidity;BMP_temperature;BMP_pressure;BME280_temperature;BME280_humidity;BME280_pressure;Samples;Min_cycle;Max_cycle;Signal;HPM_P1;HPM_P2
2023/01/01 00:00:52;;;;;;;;;;;;;;;;;;5057254;28;19924;-23
2023/01/01 00:03:19;;;;;;;;;;;;;;;;;;5057137;28;20000;-23
2023/01/01 00:05:45;;;;;;;;;;;;;;;;;;5057363;28;19924;-23
2023/01/01 00:08:11;;;;;;;;;;;;;;;;;;5056091;28;19920;-24
2023/01/01 00:10:37;;;;;;;;;;;;;;;;;;5056263;28;20000;-23
2023/01/01 00:13:03;;;;;;;;;;;;;;;;;;5057004;28;20314;-23
2023/01/01 00:15:29;;;;;;;;;;;;;;;;;;5057221;28;20351;-23
2023/01/01 00:17:55;;;;;;;;;;;;;;;;;;5056969;28;19948;-23
2023/01/01 00:20:21;;;;;;;;;;;;;;;;;;5057258;28;19939;-23
2023/01/01 00:22:47;;;;;;;;;;;;;;;;;;5056703;28;19917;-23
2023/01/01 00:25:13;;;;;;;;;;;;;;;;;;5057009;28;19919;-23
2023/01/01 00:27:39;;;;;;;;;;;;;;;;;;5056569;28;19921;-23
2023/01/01 00:30:05;;;;;;;;;;;;;;;;;;5055660;28;19923;-23
2023/01/01 00:32:31;;;;;;;;;;;;;;;;;;5056509;28;19916;-24
2023/01/01 00:34:57;;;;;;;;;;;;;;;;;;5056868;28;20240;-23
2023/01/01 00:37:23;;;;;;;;;;;;;;;;;;5056514;28;19923;-24
2023/01/01 00:39:49;;;;;;;;;;;;;;;;;;5056504;28;19921;-23
2023/01/01 00:42:15;;;;;;;;;;;;;;;;;;5056301;28;19920;-23
2023/01/01 00:44:41;;;;;;;;;;;;;;;;;;5056386;28;19913;-23
2023/01/01 00:47:07;;;;;;;;;;;;;;;;;;5056235;28;20264;-23
2023/01/01 00:49:33;;;;;;;;;;;;;;;;;;5057022;28;19920;-23
2023/01/01 00:51:59;;;;;;;;;;;;;;;;;;5056453;28;19912;-23
2023/01/01 00:54:25;;;;;;;;;;;;;;;;;;5056310;28;19916;-23
2023/01/01 00:56:51;;;;;;;;;;;;;;;;;;5056118;28;20339;-23
2023/01/01 00:59:17;;;;;;;;;;;;;;;;;;5056129;28;19996;-33
2023/01/01 01:01:43;;;;;;;;;;;;;;;;;;5056282;28;19988;-24
2023/01/01 01:04:09;;;;;;;;;;;;;;;;;;5055722;28;20026;-23
2023/01/01 01:06:35;;;;;;;;;;;;;;;;;;5056183;28;19921;-23
2023/01/01 01:09:01;;;;;;;;;;;;;;;;;;5055977;28;19912;-23
2023/01/01 01:11:27;;;;;;;;;;;;;;;;;;5055885;28;19920;-23
2023/01/01 01:13:53;;;;;;;;;;;;;;;;;;5055730;28;19959;-23
2023/01/01 01:16:19;;;;;;;;;;;;;;;;;;5055801;28;19913;-23
2023/01/01 01:18:45;;;;;;;;;;;;;;;;;;5056078;28;19936;-23
2023/01/01 01:21:11;;;;;;;;;;;;;;;;;;5056139;28;19913;-23
2023/01/01 01:23:37;;;;;;;;;;;;;;;;;;5055607;28;19924;-23
2023/01/01 01:26:03;;;;;;;;;;;;;;;;;;5055560;28;19917;-23
2023/01/01 01:28:30;;;;;;;;;;;;;;;;;;5055636;28;20007;-23
2023/01/01 01:30:56;;;;;;;;;;;;;;;;;;5055866;28;19921;-23
2023/01/01 01:33:22;;;;;;;;;;;;;;;;;;5055675;28;19925;-23
2023/01/01 01:35:47;;;;;;;;;;;;;;;;;;5055415;28;19916;-23
2023/01/01 01:38:13;;;;;;;;;;;;;;;;;;5055388;28;19932;-23
2023/01/01 01:40:39;;;;;;;;;;;;;;;;;;5055275;28;19920;-23
2023/01/01 01:43:05;;;;;;;;;;;;;;;;;;5055351;28;19909;-23
2023/01/01 01:45:31;;;;;;;;;;;;;;;;;;5055448;28;20320;-23
2023/01/01 01:47:57;;;;;;;;;;;;;;;;;;5055130;28;19964;-23
2023/01/01 01:50:23;;;;;;;;;;;;;;;;;;5055197;28;19978;-23
2023/01/01 01:52:49;;;;;;;;;;;;;;;;;;5055041;28;19913;-23
2023/01/01 01:55:15;;;;;;;;;;;;;;;;;;5055124;28;20201;-23
2023/01/01 01:57:41;;;;;;;;;;;;;;;;;;5055009;28;20244;-23
2023/01/01 02:00:08;;;;;;;;;;;;;;;;;;5054995;28;19913;-23
2023/01/01 02:02:34;;;;;;;;;;;;;;;;;;5054958;28;20304;-23
2023/01/01 02:05:00;;;;;;;;;;;;;;;;;;5055135;28;19917;-23
2023/01/01 02:07:26;;;;;;;;;;;;;;;;;;5055385;28;20012;-23
2023/01/01 02:09:52;;;;;;;;;;;;;;;;;;5054920;28;19916;-23
2023/01/01 02:12:18;;;;;;;;;;;;;;;;;;5054835;28;19915;-23
2023/01/01 02:14:44;;;;;;;;;;;;;;;;;;5054884;28;19917;-23
2023/01/01 02:17:10;;;;;;;;;;;;;;;;;;5054762;28;20393;-23
2023/01/01 02:19:36;;;;;;;;;;;;;;;;;;5054619;28;19966;-23
2023/01/01 02:22:02;;;;;;;;;;;;;;;;;;5054907;28;19913;-23
2023/01/01 02:24:28;;;;;;;;;;;;;;;;;;5054639;28;19912;-23
2023/01/01 02:26:54;;;;;;;;;;;;;;;;;;5054674;28;19913;-23
2023/01/01 02:29:20;;;;;;;;;;;;;;;;;;5054631;28;19991;-23
2023/01/01 02:31:46;;;;;;;;;;;;;;;;;;5054642;28;19952;-23
2023/01/01 02:34:12;;;;;;;;;;;;;;;;;;5060077;28;19913;-23
2023/01/01 02:36:38;;;;;;;;;;;;;;;;;;5061498;28;19913;-23
2023/01/01 02:39:04;;;;;;;;;;;;;;;;;;5061153;28;19913;-23
2023/01/01 02:41:30;;;;;;;;;;;;;;;;;;5061171;28;19974;-23
2023/01/01 02:43:56;;;;;;;;;;;;;;;;;;5061165;28;19912;-23
2023/01/01 02:46:22;;;;;;;;;;;;;;;;;;5061188;28;20271;-23
2023/01/01 02:48:48;;;;;;;;;;;;;;;;;;5061188;28;20000;-23
2023/01/01 02:51:14;;;;;;;;;;;;;;;;;;5061111;28;19912;-23
2023/01/01 02:53:40;;;;;;;;;;;;;;;;;;5061052;28;19955;-23
2023/01/01 02:56:06;;;;;;;;;;;;;;;;;;5061087;28;19917;-23
2023/01/01 03:01:17;;;;;;;;;;;;;;;;;;5061409;28;19977;-23
2023/01/01 03:03:43;;;;;;;;;;;;;;;;;;5060750;28;19952;-23
2023/01/01 03:06:21;;;;;;;;;;;;;;;;;;5061232;28;19971;-23
2023/01/01 03:08:47;;;;;;;;;;;;;;;;;;5061323;28;19986;-23
2023/01/01 03:11:13;;;;;;;;;;;;;;;;;;5060906;28;19999;-23
2023/01/01 03:13:39;;;;;;;;;;;;;;;;;;5060958;28;20004;-23
2023/01/01 03:16:05;;;;;;;;;;;;;;;;;;5060989;28;19913;-23
2023/01/01 03:18:31;;;;;;;;;;;;;;;;;;5060909;28;19912;-23
2023/01/01 03:20:57;;;;;;;;;;;;;;;;;;5061163;28;19913;-23
2023/01/01 03:23:23;;;;;;;;;;;;;;;;;;5060840;28;19966;-23
2023/01/01 03:25:49;;;;;;;;;;;;;;;;;;5059780;28;20310;-23
2023/01/01 03:28:15;;;;;;;;;;;;;;;;;;5060850;28;19909;-23
2023/01/01 03:30:41;;;;;;;;;;;;;;;;;;5061111;28;20392;-23
2023/01/01 03:33:07;;;;;;;;;;;;;;;;;;5060623;28;19916;-23
2023/01/01 03:35:34;;;;;;;;;;;;;;;;;;5060865;28;19909;-23
2023/01/01 03:38:00;;;;;;;;;;;;;;;;;;5060743;28;19913;-23
2023/01/01 03:40:26;;;;;;;;;;;;;;;;;;5060683;28;19974;-23
2023/01/01 03:42:52;;;;;;;;;;;;;;;;;;5060832;28;19940;-23
2023/01/01 03:45:18;;;;;;;;;;;;;;;;;;5057231;28;20320;-23
2023/01/01 03:47:44;;;;;;;;;;;;;;;;;;5056439;28;20249;-24
2023/01/01 03:50:10;;;;;;;;;;;;;;;;;;5057664;28;19920;-23
2023/01/01 03:52:36;;;;;;;;;;;;;;;;;;5058071;28;19908;-23
2023/01/01 03:55:02;;;;;;;;;;;;;;;;;;5057629;28;19971;-23
2023/01/01 03:57:28;;;;;;;;;;;;;;;;;;5057338;28;19970;-23
2023/01/01 03:59:54;;;;;;;;;;;;;;;;;;5057487;28;19999;-23
2023/01/01 04:02:20;;;;;;;;;;;;;;;;;;5057102;28;20003;-23
2023/01/01 04:04:46;;;;;;;;;;;;;;;;;;5056835;28;19916;-23
2023/01/01 04:07:12;;;;;;;;;;;;;;;;;;5057145;28;19917;-23
2023/01/01 04:09:38;;;;;;;;;;;;;;;;;;5057795;28;19920;-23
2023/01/01 04:12:04;;;;;;;;;;;;;;;;;;5056985;28;19952;-23
2023/01/01 04:14:30;;;;;;;;;;;;;;;;;;5057083;28;20327;-23
2023/01/01 04:16:56;;;;;;;;;;;;;;;;;;5057287;28;19948;-23
2023/01/01 04:19:22;;;;;;;;;;;;;;;;;;5055951;28;19912;-23
2023/01/01 04:21:48;;;;;;;;;;;;;;;;;;5057355;28;20312;-23
2023/01/01 04:24:14;;;;;;;;;;;;;;;;;;5056796;28;19920;-23
2023/01/01 04:26:40;;;;;;;;;;;;;;;;;;5056664;28;19917;-23
2023/01/01 04:29:06;;;;;;;;;;;;;;;;;;5056720;28;19915;-23
2023/01/01 04:31:32;;;;;;;;;;;;;;;;;;5056644;28;19951;-23
2023/01/01 04:33:58;;;;;;;;;;;;;;;;;;5056558;28;19975;-23
2023/01/01 04:36:24;;;;;;;;;;;;;;;;;;5056574;28;19974;-23
2023/01/01 04:38:50;;;;;;;;;;;;;;;;;;5056726;28;20236;-23
2023/01/01 04:41:16;;;;;;;;;;;;;;;;;;5056719;28;19924;-28
2023/01/01 04:43:43;;;;;;;;;;;;;;;;;;5056381;28;19913;-26
2023/01/01 04:46:09;;;;;;;;;;;;;;;;;;5056705;28;19967;-22
2023/01/01 04:48:35;;;;;;;;;;;;;;;;;;5056411;28;20220;-26
2023/01/01 04:51:01;;;;;;;;;;;;;;;;;;5055365;28;19995;-29
2023/01/01 04:53:27;;;;;;;;;;;;;;;;;;5056293;28;20012;-26
2023/01/01 04:55:53;;;;;;;;;;;;;;;;;;5055980;28;19948;-22
2023/01/01 04:58:19;;;;;;;;;;;;;;;;;;5056483;28;20339;-24
2023/01/01 05:00:45;;;;;;;;;;;;;;;;;;5056202;28;20299;-22
2023/01/01 05:03:11;;;;;;;;;;;;;;;;;;5056322;28;19959;-29
2023/01/01 05:05:37;;;;;;;;;;;;;;;;;;5055888;28;19920;-26
2023/01/01 05:08:03;;;;;;;;;;;;;;;;;;5056208;28;19974;-24
2023/01/01 05:10:29;;;;;;;;;;;;;;;;;;5055957;28;19926;-24
2023/01/01 05:12:55;;;;;;;;;;;;;;;;;;5055826;28;20000;-22
2023/01/01 05:15:21;;;;;;;;;;;;;;;;;;5054840;28;19944;-26
2023/01/01 05:17:47;;;;;;;;;;;;;;;;;;5055805;28;20025;-26
2023/01/01 05:20:13;;;;;;;;;;;;;;;;;;5055739;28;19923;-23
2023/01/01 05:22:39;;;;;;;;;;;;;;;;;;5055686;28;19956;-25
2023/01/01 05:25:05;;;;;;;;;;;;;;;;;;5055998;28;19924;-24
2023/01/01 05:27:31;;;;;;;;;;;;;;;;;;5055603;28;19927;-25
2023/01/01 05:29:57;;;;;;;;;;;;;;;;;;5054653;28;19928;-23
2023/01/01 05:32:23;;;;;;;;;;;;;;;;;;5055483;28;19909;-24
2023/01/01 05:34:50;;;;;;;;;;;;;;;;;;5055508;28;19916;-27
2023/01/01 05:37:16;;;;;;;;;;;;;;;;;;5055413;28;19909;-24
2023/01/01 05:39:42;;;;;;;;;;;;;;;;;;5055663;28;19999;-22
2023/01/01 05:42:08;;;;;;;;;;;;;;;;;;5055518;28;19948;-30
2023/01/01 05:44:34;;;;;;;;;;;;;;;;;;5055374;28;19919;-29
2023/01/01 05:47:00;;;;;;;;;;;;;;;;;;5055147;28;20377;-25
2023/01/01 05:49:27;;;;;;;;;;;;;;;;;;5055345;28;19909;-24
2023/01/01 05:51:53;;;;;;;;;;;;;;;;;;5055128;28;19913;-27
2023/01/01 05:54:19;;;;;;;;;;;;;;;;;;5055208;28;19917;-26
2023/01/01 05:56:45;;;;;;;;;;;;;;;;;;5055114;28;19912;-24
2023/01/01 05:59:11;;;;;;;;;;;;;;;;;;5055145;28;19995;-22
2023/01/01 06:01:37;;;;;;;;;;;;;;;;;;5055324;28;19966;-25
2023/01/01 06:04:03;;;;;;;;;;;;;;;;;;5054761;28;19913;-22
2023/01/01 06:06:29;;;;;;;;;;;;;;;;;;5055213;28;20024;-24
2023/01/01 06:08:55;;;;;;;;;;;;;;;;;;5054337;28;19944;-30
2023/01/01 06:11:21;;;;;;;;;;;;;;;;;;5054934;28;19963;-24
2023/01/01 06:13:47;;;;;;;;;;;;;;;;;;5053891;28;19916;-24
2023/01/01 06:16:13;;;;;;;;;;;;;;;;;;5055115;28;19912;-22
2023/01/01 06:18:39;;;;;;;;;;;;;;;;;;5053798;28;19920;-26
2023/01/01 06:21:05;;;;;;;;;;;;;;;;;;5054847;28;20386;-24
2023/01/01 06:23:31;;;;;;;;;;;;;;;;;;5054671;28;20264;-27
2023/01/01 06:25:57;;;;;;;;;;;;;;;;;;5054604;28;19909;-28
2023/01/01 06:28:23;;;;;;;;;;;;;;;;;;5054694;28;19913;-26
2023/01/01 06:30:49;;;;;;;;;;;;;;;;;;5054570;28;19934;-32
2023/01/01 06:33:15;;;;;;;;;;;;;;;;;;5054645;28;20344;-23
2023/01/01 06:35:41;;;;;;;;;;;;;;;;;;5053733;28;19999;-23
2023/01/01 06:38:07;;;;;;;;;;;;;;;;;;5054665;28;20024;-26
2023/01/01 06:40:33;;;;;;;;;;;;;;;;;;5054707;28;19924;-25
2023/01/01 06:42:59;;;;;;;;;;;;;;;;;;5054755;28;19956;-29
2023/01/01 06:45:25;;;;;;;;;;;;;;;;;;5054823;28;19923;-26
2023/01/01 06:47:51;;;;;;;;;;;;;;;;;;5054501;28;20399;-24
2023/01/01 06:50:17;;;;;;;;;;;;;;;;;;5054533;28;19985;-25
2023/01/01 06:52:43;;;;;;;;;;;;;;;;;;5054407;28;19916;-26
2023/01/01 06:55:09;;;;;;;;;;;;;;;;;;5054725;28;19926;-26
2023/01/01 06:57:35;;;;;;;;;;;;;;;;;;5054391;28;19913;-23
2023/01/01 07:00:01;;;;;;;;;;;;;;;;;;5054700;28;20328;-26
2023/01/01 07:02:27;;;;;;;;;;;;;;;;;;5054259;28;20098;-26
2023/01/01 07:04:53;;;;;;;;;;;;;;;;;;5054151;28;19924;-27
2023/01/01 07:07:19;;;;;;;;;;;;;;;;;;5054286;28;19928;-22
2023/01/01 07:09:45;;;;;;;;;;;;;;;;;;5053369;28;19913;-23
2023/01/01 07:12:11;;;;;;;;;;;;;;;;;;5054217;28;20003;-23
2023/01/01 07:14:37;;;;;;;;;;;;;;;;;;5054558;28;19937;-29
2023/01/01 07:17:03;;;;;;;;;;;;;;;;;;5054264;28;19943;-25
2023/01/01 07:19:29;;;;;;;;;;;;;;;;;;5055795;28;19909;-26
2023/01/01 07:21:55;;;;;;;;;;;;;;;;;;5057892;28;19913;-28
2023/01/01 07:24:21;;;;;;;;;;;;;;;;;;5058261;28;20031;-24
2023/01/01 07:26:47;;;;;;;;;;;;;;;;;;5057920;28;20003;-27
2023/01/01 07:29:13;;;;;;;;;;;;;;;;;;5057878;28;20402;-24
2023/01/01 07:31:39;;;;;;;;;;;;;;;;;;5057795;28;19916;-23
2023/01/01 07:34:05;;;;;;;;;;;;;;;;;;5057789;28;19915;-24
2023/01/01 07:36:31;;;;;;;;;;;;;;;;;;5057714;28;19912;-26
2023/01/01 07:38:57;;;;;;;;;;;;;;;;;;5057775;28;19920;-25
2023/01/01 07:41:23;;;;;;;;;;;;;;;;;;5057934;28;19932;-26
2023/01/01 07:43:50;;;;;;;;;;;;;;;;;;5057581;28;19912;-26
2023/01/01 07:46:17;;;;;;;;;;;;;;;;;;5057551;28;20003;-27
2023/01/01 07:48:43;;;;;;;;;;;;;;;;;;5057558;28;20292;-29
2023/01/01 07:51:09;;;;;;;;;;;;;;;;;;5056524;28;19913;-25
2023/01/01 07:53:35;;;;;;;;;;;;;;;;;;5057370;28;20319;-32
2023/01/01 07:56:01;;;;;;;;;;;;;;;;;;5057487;28;19908;-27
2023/01/01 07:58:27;;;;;;;;;;;;;;;;;;5057402;28;20340;-32
2023/01/01 08:00:53;;;;;;;;;;;;;;;;;;5057405;28;19951;-29
2023/01/01 08:03:19;;;;;;;;;;;;;;;;;;5057502;28;19913;-31
2023/01/01 08:05:45;;;;;;;;;;;;;;;;;;5056099;28;19917;-24
2023/01/01 08:08:11;;;;;;;;;;;;;;;;;;5057278;28;19977;-23
2023/01/01 08:10:37;;;;;;;;;;;;;;;;;;5057304;28;20288;-25
2023/01/01 08:13:03;;;;;;;;;;;;;;;;;;5056972;28;19951;-26
2023/01/01 08:15:29;;;;;;;;;;;;;;;;;;5057237;28;19928;-24
2023/01/01 08:17:55;;;;;;;;;;;;;;;;;;5056955;28;19909;-22
2023/01/01 08:20:21;;;;;;;;;;;;;;;;;;5056926;28;19916;-25
2023/01/01 08:22:47;;;;;;;;;;;;;;;;;;5056856;28;20369;-27
2023/01/01 08:25:13;;;;;;;;;;;;;;;;;;5055899;28;20308;-30
2023/01/01 08:27:39;;;;;;;;;;;;;;;;;;5056729;28;19975;-24
2023/01/01 08:30:05;;;;;;;;;;;;;;;;;;5055632;28;19909;-27
2023/01/01 08:32:31;;;;;;;;;;;;;;;;;;5056313;28;19913;-22
2023/01/01 08:34:57;;;;;;;;;;;;;;;;;;5056664;28;20302;-24
2023/01/01 08:37:23;;;;;;;;;;;;;;;;;;5056605;28;19978;-25
2023/01/01 08:39:49;;;;;;;;;;;;;;;;;;5056603;28;19908;-23
2023/01/01 08:42:15;;;;;;;;;;;;;;;;;;5056744;28;19924;-25
2023/01/01 08:44:41;;;;;;;;;;;;;;;;;;5056468;28;19944;-25
2023/01/01 08:47:07;;;;;;;;;;;;;;;;;;5056601;28;19921;-31
2023/01/01 08:49:33;;;;;;;;;;;;;;;;;;5056307;28;19923;-31
2023/01/01 08:51:59;;;;;;;;;;;;;;;;;;5055297;28;19909;-27
2023/01/01 08:54:25;;;;;;;;;;;;;;;;;;5056592;28;19991;-28
2023/01/01 08:56:51;;;;;;;;;;;;;;;;;;5056242;28;20249;-26
2023/01/01 08:59:17;;;;;;;;;;;;;;;;;;5056205;28;19920;-28
2023/01/01 09:01:43;;;;;;;;;;;;;;;;;;5056442;28;19947;-31
2023/01/01 09:04:11;;;;;;;;;;;;;;;;;;5055752;28;19931;-28
2023/01/01 09:06:37;;;;;;;;;;;;;;;;;;5055946;28;19924;-25
2023/01/01 09:09:03;;;;;;;;;;;;;;;;;;5056354;28;19916;-26
2023/01/01 09:11:30;;;;;;;;;;;;;;;;;;5055926;28;19923;-25
2023/01/01 09:13:55;;;;;;;;;;;;;;;;;;5055806;28;20344;-27
2023/01/01 09:16:22;;;;;;;;;;;;;;;;;;5055902;28;19915;-29
2023/01/01 09:18:48;;;;;;;;;;;;;;;;;;5056146;28;19927;-23
2023/01/01 09:21:14;;;;;;;;;;;;;;;;;;5055794;28;20005;-23
2023/01/01 09:23:40;;;;;;;;;;;;;;;;;;5055566;28;20404;-26
2023/01/01 09:26:06;;;;;;;;;;;;;;;;;;5055512;28;19913;-28
2023/01/01 09:28:32;;;;;;;;;;;;;;;;;;5055610;28;19921;-26
2023/01/01 09:30:58;;;;;;;;;;;;;;;;;;5054650;28;19917;-26
2023/01/01 09:33:24;;;;;;;;;;;;;;;;;;5055525;28;19913;-29
2023/01/01 09:35:50;;;;;;;;;;;;;;;;;;5055531;28;19919;-28
2023/01/01 09:38:16;;;;;;;;;;;;;;;;;;5055744;28;19951;-26
2023/01/01 09:40:42;;;;;;;;;;;;;;;;;;5055369;28;19920;-26
2023/01/01 09:43:08;;;;;;;;;;;;;;;;;;5054316;28;19909;-25
2023/01/01 09:45:34;;;;;;;;;;;;;;;;;;5055326;28;19998;-26
2023/01/01 09:48:00;;;;;;;;;;;;;;;;;;5055215;28;19927;-26
2023/01/01 09:50:26;;;;;;;;;;;;;;;;;;5055540;28;19909;-27
2023/01/01 09:52:52;;;;;;;;;;;;;;;;;;5055184;28;19913;-26
2023/01/01 09:55:18;;;;;;;;;;;;;;;;;;5055465;28;19924;-24
2023/01/01 09:57:44;;;;;;;;;;;;;;;;;;5055380;28;19913;-26
2023/01/01 10:00:10;;;;;;;;;;;;;;;;;;5055415;28;20251;-23
2023/01/01 10:02:36;;;;;;;;;;;;;;;;;;5054991;28;19912;-28
2023/01/01 10:05:02;;;;;;;;;;;;;;;;;;5054841;28;19927;-28
2023/01/01 10:07:28;;;;;;;;;;;;;;;;;;5055154;28;20024;-24
2023/01/01 10:09:54;;;;;;;;;;;;;;;;;;5055251;28;19940;-28
2023/01/01 10:12:20;;;;;;;;;;;;;;;;;;5055119;28;19924;-26
2023/01/01 10:14:46;;;;;;;;;;;;;;;;;;5054782;28;20367;-27
2023/01/01 10:17:12;;;;;;;;;;;;;;;;;;5054853;28;19909;-25
2023/01/01 10:19:39;;;;;;;;;;;;;;;;;;5054774;28;19936;-29
2023/01/01 10:22:05;;;;;;;;;;;;;;;;;;5054948;28;19912;-25
2023/01/01 10:24:31;;;;;;;;;;;;;;;;;;5054742;28;19932;-27
2023/01/01 10:26:57;;;;;;;;;;;;;;;;;;5054951;28;19912;-23
2023/01/01 10:29:23;;;;;;;;;;;;;;;;;;5053859;28;20066;-24
2023/01/01 10:31:49;;;;;;;;;;;;;;;;;;5054857;28;20305;-22
2023/01/01 10:34:15;;;;;;;;;;;;;;;;;;5054717;28;20271;-26
2023/01/01 10:36:41;;;;;;;;;;;;;;;;;;5054860;28;19988;-25
2023/01/01 10:39:07;;;;;;;;;;;;;;;;;;5054866;28;20371;-30
2023/01/01 10:41:33;;;;;;;;;;;;;;;;;;5054822;28;19935;-22
2023/01/01 10:43:59;;;;;;;;;;;;;;;;;;5054748;28;20335;-26
2023/01/01 10:46:25;;;;;;;;;;;;;;;;;;5054408;28;19924;-29
2023/01/01 10:48:51;;;;;;;;;;;;;;;;;;5054532;28;19955;-29
2023/01/01 10:51:19;;;;;;;;;;;;;;;;;;5054511;28;19948;-23
2023/01/01 10:53:45;;;;;;;;;;;;;;;;;;5055200;28;19912;-27
2023/01/01 10:56:11;;;;;;;;;;;;;;;;;;5058484;28;19924;-27
2023/01/01 10:58:37;;;;;;;;;;;;;;;;;;5058469;28;19913;-24
2023/01/01 11:01:04;;;;;;;;;;;;;;;;;;5058485;28;19971;-25
2023/01/01 11:03:30;;;;;;;;;;;;;;;;;;5058182;28;19913;-24
2023/01/01 11:05:56;;;;;;;;;;;;;;;;;;5057401;28;20356;-27
2023/01/01 11:08:21;;;;;;;;;;;;;;;;;;5058527;28;19917;-24
2023/01/01 11:10:48;;;;;;;;;;;;;;;;;;5058279;28;20401;-23
2023/01/01 11:13:14;;;;;;;;;;;;;;;;;;5058151;28;19913;-26
2023/01/01 11:15:40;;;;;;;;;;;;;;;;;;5058156;28;20232;-28
2023/01/01 11:18:06;;;;;;;;;;;;;;;;;;5058175;28;19909;-22
2023/01/01 11:20:32;;;;;;;;;;;;;;;;;;5058045;28;19920;-31
2023/01/01 11:22:58;;;;;;;;;;;;;;;;;;5058030;28;20395;-25
2023/01/01 11:25:27;;;;;;;;;;;;;;;;;;5058306;28;20339;-24
2023/01/01 11:27:53;;;;;;;;;;;;;;;;;;5057918;28;19913;-26
2023/01/01 11:30:19;;;;;;;;;;;;;;;;;;5057868;28;19913;-23
2023/01/01 11:32:45;;;;;;;;;;;;;;;;;;5058064;28;19940;-28
2023/01/01 11:35:11;;;;;;;;;;;;;;;;;;5057771;28;19912;-26
2023/01/01 11:37:37;;;;;;;;;;;;;;;;;;5057720;28;20008;-22
2023/01/01 11:40:03;;;;;;;;;;;;;;;;;;5058024;28;20370;-26
2023/01/01 11:42:29;;;;;;;;;;;;;;;;;;5057650;28;20251;-24
2023/01/01 11:44:55;;;;;;;;;;;;;;;;;;5057752;28;19916;-25
2023/01/01 11:47:21;;;;;;;;;;;;;;;;;;5056577;28;19917;-26
2023/01/01 11:49:47;;;;;;;;;;;;;;;;;;5057824;28;20082;-29
2023/01/01 11:52:13;;;;;;;;;;;;;;;;;;5057494;28;19912;-31
2023/01/01 11:54:39;;;;;;;;;;;;;;;;;;5057740;28;19970;-24
2023/01/01 11:57:05;;;;;;;;;;;;;;;;;;5056439;28;20003;-30
2023/01/01 11:59:31;;;;;;;;;;;;;;;;;;5057384;28;19963;-31
2023/01/01 12:01:57;;;;;;;;;;;;;;;;;;5057225;28;19913;-27
2023/01/01 12:04:23;;;;;;;;;;;;;;;;;;5057050;28;20260;-27
2023/01/01 12:06:49;;;;;;;;;;;;;;;;;;5056033;28;19921;-24
2023/01/01 12:09:15;;;;;;;;;;;;;;;;;;5057211;28;19909;-27
2023/01/01 12:11:41;;;;;;;;;;;;;;;;;;5057137;28;19913;-28
2023/01/01 12:14:07;;;;;;;;;;;;;;;;;;5056949;28;19913;-23
2023/01/01 12:16:33;;;;;;;;;;;;;;;;;;5057591;28;19920;-27
2023/01/01 12:18:59;;;;;;;;;;;;;;;;;;5056027;28;20241;-27
2023/01/01 12:21:25;;;;;;;;;;;;;;;;;;5056997;28;19916;-23
2023/01/01 12:23:51;;;;;;;;;;;;;;;;;;5056866;28;19912;-25
2023/01/01 12:26:17;;;;;;;;;;;;;;;;;;5056789;28;19913;-25
2023/01/01 12:28:43;;;;;;;;;;;;;;;;;;5057095;28;20027;-22
2023/01/01 12:31:09;;;;;;;;;;;;;;;;;;5056843;28;20336;-32
2023/01/01 12:33:35;;;;;;;;;;;;;;;;;;5056676;28;20310;-28
2023/01/01 12:36:01;;;;;;;;;;;;;;;;;;5056698;28;19963;-28
2023/01/01 12:38:27;;;;;;;;;;;;;;;;;;5056618;28;19936;-25
2023/01/01 12:40:53;;;;;;;;;;;;;;;;;;5056607;28;19996;-22
2023/01/01 12:43:20;;;;;;;;;;;;;;;;;;5056655;28;19916;-28
2023/01/01 12:45:46;;;;;;;;;;;;;;;;;;5056466;28;20004;-27
2023/01/01 12:48:12;;;;;;;;;;;;;;;;;;5056408;28;19927;-27
2023/01/01 12:50:38;;;;;;;;;;;;;;;;;;5056409;28;19913;-29
2023/01/01 12:53:04;;;;;;;;;;;;;;;;;;5056310;28;19912;-23
2023/01/01 12:55:30;;;;;;;;;;;;;;;;;;5056223;28;19932;-24
2023/01/01 12:57:56;;;;;;;;;;;;;;;;;;5056303;28;19908;-23
2023/01/01 13:00:22;;;;;;;;;;;;;;;;;;5056528;28;19939;-24
2023/01/01 13:02:48;;;;;;;;;;;;;;;;;;5056071;28;19909;-27
2023/01/01 13:05:14;;;;;;;;;;;;;;;;;;5055899;28;20371;-26
2023/01/01 13:07:40;;;;;;;;;;;;;;;;;;5056546;28;20048;-23
2023/01/01 13:10:06;;;;;;;;;;;;;;;;;;5056014;28;20003;-22
2023/01/01 13:12:32;;;;;;;;;;;;;;;;;;5055894;28;20411;-25
2023/01/01 13:14:58;;;;;;;;;;;;;;;;;;5056003;28;19920;-24
2023/01/01 13:17:24;;;;;;;;;;;;;;;;;;5055637;28;20352;-28
2023/01/01 13:19:50;;;;;;;;;;;;;;;;;;5055879;28;19913;-29
2023/01/01 13:22:16;;;;;;;;;;;;;;;;;;5055920;28;19956;-27
2023/01/01 13:24:42;;;;;;;;;;;;;;;;;;5055761;28;19912;-26
2023/01/01 13:27:08;;;;;;;;;;;;;;;;;;5055634;28;20295;-31
2023/01/01 13:29:34;;;;;;;;;;;;;;;;;;5055712;28;19909;-25
2023/01/01 13:32:00;;;;;;;;;;;;;;;;;;5055562;28;19913;-32
2023/01/01 13:34:26;;;;;;;;;;;;;;;;;;5055611;28;20000;-26
2023/01/01 13:36:52;;;;;;;;;;;;;;;;;;5055819;28;20185;-23
2023/01/01 13:39:18;;;;;;;;;;;;;;;;;;5055583;28;19925;-25
2023/01/01 13:41:44;;;;;;;;;;;;;;;;;;5055362;28;20260;-27
2023/01/01 13:44:10;;;;;;;;;;;;;;;;;;5054417;28;19909;-22
2023/01/01 13:46:36;;;;;;;;;;;;;;;;;;5055338;28;19924;-25
2023/01/01 13:49:02;;;;;;;;;;;;;;;;;;5055303;28;20344;-28
2023/01/01 13:51:28;;;;;;;;;;;;;;;;;;5055479;28;20336;-24
2023/01/01 13:53:54;;;;;;;;;;;;;;;;;;5055435;28;19909;-24
2023/01/01 13:56:20;;;;;;;;;;;;;;;;;;5055328;28;19952;-31
2023/01/01 13:58:46;;;;;;;;;;;;;;;;;;5055208;28;19948;-29
2023/01/01 14:01:13;;;;;;;;;;;;;;;;;;5055137;28;19912;-22
2023/01/01 14:03:39;;;;;;;;;;;;;;;;;;5054836;28;19913;-25
2023/01/01 14:06:05;;;;;;;;;;;;;;;;;;5055032;28;19920;-26
2023/01/01 14:08:31;;;;;;;;;;;;;;;;;;5053952;28;20008;-24
2023/01/01 14:10:59;;;;;;;;;;;;;;;;;;5054935;28;19921;-26
2023/01/01 14:13:28;;;;;;;;;;;;;;;;;;5054818;28;19924;-27
2023/01/01 14:15:54;;;;;;;;;;;;;;;;;;5055187;28;20259;-31
2023/01/01 14:18:20;;;;;;;;;;;;;;;;;;5054961;28;19967;-29
2023/01/01 14:20:46;;;;;;;;;;;;;;;;;;5054858;28;19912;-31
2023/01/01 14:23:12;;;;;;;;;;;;;;;;;;5054755;28;19948;-27
2023/01/01 14:25:38;;;;;;;;;;;;;;;;;;5055097;28;19920;-23
2023/01/01 14:28:04;;;;;;;;;;;;;;;;;;5054438;28;20261;-25
2023/01/01 14:30:30;;;;;;;;;;;;;;;;;;5054272;28;19947;-24
2023/01/01 14:32:56;;;;;;;;;;;;;;;;;;5054663;28;20344;-23
2023/01/01 14:35:22;;;;;;;;;;;;;;;;;;5054874;28;20247;-26
2023/01/01 14:37:48;;;;;;;;;;;;;;;;;;5054707;28;19916;-25
2023/01/01 14:40:14;;;;;;;;;;;;;;;;;;5054631;28;19917;-25
2023/01/01 14:42:40;;;;;;;;;;;;;;;;;;5054566;28;20255;-26
2023/01/01 14:45:06;;;;;;;;;;;;;;;;;;5054574;28;19913;-27
2023/01/01 14:47:32;;;;;;;;;;;;;;;;;;5054505;28;19986;-25
2023/01/01 14:49:58;;;;;;;;;;;;;;;;;;5054514;28;20374;-23
2023/01/01 14:52:25;;;;;;;;;;;;;;;;;;5054442;28;19909;-24
2023/01/01 14:54:51;;;;;;;;;;;;;;;;;;5054508;28;19928;-27
2023/01/01 14:57:17;;;;;;;;;;;;;;;;;;5054451;28;20244;-31
2023/01/01 14:59:43;;;;;;;;;;;;;;;;;;5054449;28;20012;-32
2023/01/01 15:02:09;;;;;;;;;;;;;;;;;;5054511;28;19927;-30
2023/01/01 15:04:35;;;;;;;;;;;;;;;;;;5054661;28;19921;-24
2023/01/01 15:07:01;;;;;;;;;;;;;;;;;;5054311;28;19920;-28
2023/01/01 15:09:27;;;;;;;;;;;;;;;;;;5054372;28;19913;-27
2023/01/01 15:11:53;;;;;;;;;;;;;;;;;;5054540;28;19939;-24
2023/01/01 15:14:19;;;;;;;;;;;;;;;;;;5054325;28;19908;-24
2023/01/01 15:16:45;;;;;;;;;;;;;;;;;;5054187;28;19923;-27
2023/01/01 15:19:11;;;;;;;;;;;;;;;;;;5054286;28;20003;-31
2023/01/01 15:21:37;;;;;;;;;;;;;;;;;;5054218;28;19913;-26
2023/01/01 15:24:03;;;;;;;;;;;;;;;;;;5054465;28;19992;-31
2023/01/01 15:26:29;;;;;;;;;;;;;;;;;;5053157;28;19940;-24
2023/01/01 15:28:55;;;;;;;;;;;;;;;;;;5054113;28;19909;-26
2023/01/01 15:31:21;;;;;;;;;;;;;;;;;;5054093;28;19941;-25
2023/01/01 15:33:47;;;;;;;;;;;;;;;;;;5054111;28;19953;-26
2023/01/01 15:36:15;;;;;;;;;;;;;;;;;;5054408;28;19913;-23
2023/01/01 15:38:41;;;;;;;;;;;;;;;;;;5054130;28;20406;-25
2023/01/01 15:41:07;;;;;;;;;;;;;;;;;;5056579;28;19916;-26
2023/01/01 15:43:33;;;;;;;;;;;;;;;;;;5057590;28;19970;-26
2023/01/01 15:45:59;;;;;;;;;;;;;;;;;;5056645;28;20340;-24
2023/01/01 15:48:25;;;;;;;;;;;;;;;;;;5057559;28;19913;-25
2023/01/01 15:50:51;;;;;;;;;;;;;;;;;;5058043;28;20008;-22
2023/01/01 15:53:17;;;;;;;;;;;;;;;;;;5057639;28;20312;-25
2023/01/01 15:55:43;;;;;;;;;;;;;;;;;;5057430;28;19920;-25
2023/01/01 15:58:09;;;;;;;;;;;;;;;;;;5056464;28;19908;-24
2023/01/01 16:00:35;;;;;;;;;;;;;;;;;;5057691;28;19924;-30
2023/01/01 16:03:01;;;;;;;;;;;;;;;;;;5057253;28;19951;-26
2023/01/01 16:05:27;;;;;;;;;;;;;;;;;;5057174;28;20402;-32
2023/01/01 16:07:53;;;;;;;;;;;;;;;;;;5057415;28;19925;-24
2023/01/01 16:10:19;;;;;;;;;;;;;;;;;;5057237;28;20363;-24
2023/01/01 16:12:45;;;;;;;;;;;;;;;;;;5057330;28;20209;-31
2023/01/01 16:15:11;;;;;;;;;;;;;;;;;;5057401;28;19935;-27
2023/01/01 16:17:37;;;;;;;;;;;;;;;;;;5057080;28;20218;-26
2023/01/01 16:20:03;;;;;;;;;;;;;;;;;;5056039;28;20340;-24
2023/01/01 16:22:29;;;;;;;;;;;;;;;;;;5056882;28;20031;-25
2023/01/01 16:24:55;;;;;;;;;;;;;;;;;;5057200;28;19952;-26
2023/01/01 16:27:21;;;;;;;;;;;;;;;;;;5056777;28;19939;-26
2023/01/01 16:29:47;;;;;;;;;;;;;;;;;;5056871;28;19999;-28
2023/01/01 16:32:13;;;;;;;;;;;;;;;;;;5056679;28;19912;-23
2023/01/01 16:34:39;;;;;;;;;;;;;;;;;;5056952;28;19920;-23
2023/01/01 16:37:05;;;;;;;;;;;;;;;;;;5056580;28;19923;-24
2023/01/01 16:39:31;;;;;;;;;;;;;;;;;;5056853;28;19908;-23